• Join FlightAware (Why Join?)
  • Login
  • US Flag 
01:04AM EDT


 

Airport Tracker/Info


-or-


 

Live Flight TrackerFlight Track Log ✈ CTL17 ✈ 16-May-2013 ✈ KMBS - KYIP

Flight Track Log - Related Links

Times and Time Zones

All times are in EDT time to prevent confusion due to time zone crossing. See the CTL17 flight status page for this flight to view local times or setup timezone preferences in your user account.

Time Position Orientation Groundspeed Altitude Reporting Facility
EDT Latitude Longitude Course Direction KTS MPH feet Rate Location/Type
04:45PM 43.3904 -84.0180 160° South  Level Estimated
04:46PM 43.3637 -83.9994 153° Southeast  Level FlightAware Approximate
04:47PM 43.3371 -83.9809 153° Southeast  Level FlightAware Approximate
04:48PM 43.3085 -83.9689 160° South  Level Estimated
04:49PM 43.2809 -83.9532 157° South  Level FlightAware Approximate
04:50PM 43.2533 -83.9375 157° South  Level FlightAware Approximate
04:51PM 43.2246 -83.9258 163° South  Level Estimated
04:52PM 43.1964 -83.9124 161° South  Level FlightAware Approximate
04:53PM 43.1682 -83.8990 161° South  Level FlightAware Approximate
04:53PM 42.9678 -83.7981 169° South 175 201 5,100  Level Cleveland Center
04:54PM 43.1399 -83.8856 161° South  Level FlightAware Approximate
04:54PM 42.9181 -83.7814 166° South 185 213 5,100  Level Cleveland Center
04:55PM 43.1113 -83.8741 160° South  Level Estimated
04:55PM 42.8625 -83.7614 165° South 184 212 5,100  Level Cleveland Center
04:56PM 43.0832 -83.8599 160° South  Level FlightAware Approximate
04:56PM 42.8211 -83.7481 167° South 179 206 5,000  Level Cleveland Center
04:57PM 43.0552 -83.8456 160° South  Level FlightAware Approximate
04:57PM 42.7672 -83.7339 169° South 172 198 5,000  Level Cleveland Center
04:58PM 42.7217 -83.7289 175° South 174 200 5,100  Climbing Cleveland Center
04:59PM 42.6717 -83.7178 171° South 177 204 5,100 -60 Level Cleveland Center
05:00PM 42.6200 -83.7097 173° South 180 207 5,000  Descending Cleveland Center
05:01PM 42.5744 -83.6989 170° South 178 205 5,100  Climbing Cleveland Center
05:02PM 42.5225 -83.6906 173° South 181 208 5,000 -60 Descending Cleveland Center
05:03PM 42.4747 -83.6800 171° South 172 198 5,000 -120 Level Cleveland Center
05:04PM 42.4269 -83.6747 175° South 184 212 4,800 -360 Descending Cleveland Center
05:05PM 42.3728 -83.6722 178° South 179 206 4,300 -420 Descending Cleveland Center
05:06PM 42.3292 -83.6672 175° South 184 212 4,100 -300 Descending Cleveland Center
05:07PM 42.2756 -83.6506 167° South 189 217 3,700 -540 Descending Cleveland Center
05:08PM 42.2281 -83.6286 161° South 185 213 3,100 -1,080 Descending Cleveland Center
05:09PM 42.2083 -83.5828 120° Southeast 152 175 1,600 -1,380 Descending Cleveland Center
05:11PM 42.2334 -83.5409 160° South  Level Estimated
05:18PM 42.2393 -83.5310 160° South  Level Estimated
05:19PM 42.2393 -83.5310 160° South  Level Estimated
05:20PM 42.2393 -83.5310 160° South  Level Estimated